Impacts TAF Board
For situational awareness. Not to be used for flight planning purposes.
IDs:

KCLT - Charlotte/Douglas In, NC, US

Issued at 1141 UTC 16 Oct 2018
Updated at 1153 UTC 16 Oct 2018
Potential Impact None Slight Moderate High
Time<<17/12Z 17/13Z 17/14Z 17/15Z 17/16Z 17/17Z 17/18Z 17/19Z 17/20Z 17/21Z 17/22Z 17/23Z 18/00Z
Type PRVL PRVL PRVL PRVL PRVL PRVL
VIS 4 4 4 4 4 4
CIG 10 10 10 10 10 10
Cover OVC OVC OVC OVC OVC OVC
FltCat MVFR MVFR MVFR MVFR MVFR MVFR
WX BR VCSH BR VCSH BR VCSH BR VCSH BR VCSH BR VCSH
WDir VRB VRB VRB VRB VRB VRB
WSpd 3 3 3 3 3 3
WGst -- -- -- -- -- --
Raw TAF
KCLT 161141Z 1612/1718 29003KT P6SM BKN200
  FM161400 02004KT P6SM BKN050
  FM161900 VRB03KT P6SM BKN060
  TEMPO 1620/1624 5SM -TSRA OVC025CB
  FM170000 05004KT P6SM -SHRA BKN040
  FM170600 VRB03KT 4SM BR VCSH OVC010


METAR Board
Radar Display
Forecast Discussion
For situational awareness. Not to be used for flight planning purposes.